createdAt,value
2022-12-06T00:00:23.431Z,6.43
2022-12-06T00:04:25.157Z,6.65
2022-12-06T00:08:26.903Z,6.72
2022-12-06T00:12:28.541Z,6.55
2022-12-06T00:16:31.030Z,5.72
2022-12-06T00:20:34.025Z,7.03
2022-12-06T00:24:36.087Z,5.60
2022-12-06T00:28:38.528Z,5.53
2022-12-06T00:32:40.080Z,6.38
2022-12-06T00:36:42.444Z,6.00
2022-12-06T00:40:44.022Z,6.03
2022-12-06T00:44:45.626Z,6.57
2022-12-06T00:48:48.246Z,5.13
2022-12-06T00:52:49.780Z,5.35
2022-12-06T00:56:51.353Z,4.95
2022-12-06T01:00:53.392Z,5.47
2022-12-06T01:04:55.361Z,5.57
2022-12-06T01:08:59.331Z,4.72
2022-12-06T01:13:01.389Z,6.90
2022-12-06T01:17:03.238Z,5.70
2022-12-06T01:21:13.157Z,5.15
2022-12-06T01:25:14.864Z,6.35
2022-12-06T01:29:17.164Z,5.70
2022-12-06T01:33:18.882Z,6.60
2022-12-06T01:37:20.490Z,5.95
2022-12-06T01:41:24.186Z,6.32
2022-12-06T01:45:25.745Z,6.05
2022-12-06T01:49:31.338Z,6.13
2022-12-06T01:53:33.044Z,5.68
2022-12-06T01:57:34.888Z,6.72
2022-12-06T02:01:38.392Z,6.18
2022-12-06T02:05:41.046Z,5.65
2022-12-06T02:09:43.292Z,5.68
2022-12-06T02:13:45.341Z,5.93
2022-12-06T02:17:50.834Z,6.13
2022-12-06T02:22:03.067Z,5.75
2022-12-06T02:26:17.144Z,6.32
2022-12-06T02:30:54.167Z,5.97
2022-12-06T02:35:34.783Z,7.07
2022-12-06T02:39:49.318Z,5.93
2022-12-06T02:43:58.518Z,4.97
2022-12-06T02:48:02.765Z,5.78
2022-12-06T02:52:04.665Z,5.78
2022-12-06T02:56:06.360Z,5.22
2022-12-06T03:00:29.821Z,5.68
2022-12-06T03:05:03.488Z,5.28
2022-12-06T03:09:16.538Z,5.88
2022-12-06T03:13:34.908Z,5.22
2022-12-06T03:17:53.292Z,6.18
2022-12-06T03:22:04.713Z,6.10
2022-12-06T03:26:07.489Z,5.30
2022-12-06T03:30:12.932Z,5.72
2022-12-06T03:34:34.747Z,5.35
2022-12-06T03:38:41.728Z,6.25
2022-12-06T03:42:44.551Z,5.07
2022-12-06T03:46:49.311Z,5.15
2022-12-06T03:50:58.658Z,6.00
2022-12-06T03:55:00.744Z,5.07
2022-12-06T03:59:06.469Z,5.80
2022-12-06T04:03:08.204Z,6.38
2022-12-06T04:07:10.776Z,5.80
2022-12-06T04:11:12.381Z,5.75
2022-12-06T04:15:14.442Z,5.70
2022-12-06T04:19:16.005Z,5.80
2022-12-06T04:23:21.675Z,6.60
2022-12-06T04:27:41.919Z,5.90
2022-12-06T04:32:02.833Z,4.70
2022-12-06T04:36:23.630Z,4.50
2022-12-06T04:40:25.313Z,4.85
2022-12-06T04:44:26.922Z,5.35
2022-12-06T04:48:28.575Z,4.90
2022-12-06T04:52:35.384Z,5.07
2022-12-06T04:56:37.742Z,4.93
2022-12-06T05:00:43.772Z,5.80
2022-12-06T05:04:45.601Z,4.78
2022-12-06T05:08:48.668Z,5.20
2022-12-06T05:12:50.285Z,4.85
2022-12-06T05:16:52.740Z,5.43
2022-12-06T05:21:04.760Z,5.07
2022-12-06T05:25:06.630Z,5.70
2022-12-06T05:29:08.287Z,6.22
2022-12-06T05:33:09.907Z,5.70
2022-12-06T05:37:11.873Z,6.65
2022-12-06T05:41:13.779Z,6.00
2022-12-06T05:45:15.846Z,5.80
2022-12-06T05:49:17.382Z,6.10
2022-12-06T05:53:18.919Z,6.13
2022-12-06T05:57:21.032Z,7.47
2022-12-06T06:01:22.680Z,7.85
2022-12-06T06:05:24.457Z,6.35
2022-12-06T06:09:29.990Z,7.32
2022-12-06T06:13:31.509Z,6.28
2022-12-06T06:17:34.337Z,5.90
2022-12-06T06:21:36.073Z,6.45
2022-12-06T06:25:40.879Z,5.95
2022-12-06T06:29:45.511Z,7.55
2022-12-06T06:33:47.841Z,6.65
2022-12-06T06:37:49.928Z,5.45
2022-12-06T06:41:51.415Z,6.68
2022-12-06T06:45:53.983Z,5.95
2022-12-06T06:49:55.648Z,5.93
2022-12-06T06:53:57.354Z,5.43
2022-12-06T06:57:59.130Z,6.78
2022-12-06T07:02:00.892Z,5.20
2022-12-06T07:06:07.050Z,5.15
2022-12-06T07:10:09.238Z,5.30
2022-12-06T07:14:10.801Z,5.63
2022-12-06T07:18:12.773Z,6.07
2022-12-06T07:22:14.698Z,6.00
2022-12-06T07:26:18.588Z,6.32
2022-12-06T07:30:25.752Z,5.80
2022-12-06T07:34:29.085Z,5.72
2022-12-06T07:38:30.932Z,5.88
2022-12-06T07:42:51.393Z,6.35
2022-12-06T07:46:55.272Z,6.53
2022-12-06T07:50:56.791Z,5.82
2022-12-06T07:54:58.431Z,7.85
2022-12-06T07:59:01.079Z,6.80
2022-12-06T08:03:02.952Z,6.55
2022-12-06T08:07:04.484Z,6.97
2022-12-06T08:11:08.334Z,7.22
2022-12-06T08:15:13.317Z,7.10
2022-12-06T08:19:14.866Z,6.35
2022-12-06T08:23:16.787Z,6.72
2022-12-06T08:27:18.431Z,7.38
2022-12-06T08:31:23.498Z,7.70
2022-12-06T08:35:25.529Z,7.22
2022-12-06T08:39:28.554Z,5.95
2022-12-06T08:43:31.540Z,6.13
2022-12-06T08:47:33.462Z,6.07
2022-12-06T08:51:35.890Z,7.18
2022-12-06T08:55:38.827Z,6.07
2022-12-06T08:59:40.927Z,6.43
2022-12-06T09:03:42.598Z,6.15
2022-12-06T09:07:44.681Z,6.57
2022-12-06T09:11:46.937Z,6.72
2022-12-06T09:15:49.140Z,6.85
2022-12-06T09:19:50.897Z,6.68
2022-12-06T09:23:55.825Z,7.03
2022-12-06T09:27:58.325Z,6.50
2022-12-06T09:31:59.994Z,6.70
2022-12-06T09:36:04.717Z,7.07
2022-12-06T09:40:13.463Z,7.03
2022-12-06T09:44:31.069Z,6.55
2022-12-06T09:52:58.916Z,6.93
2022-12-06T09:57:39.080Z,6.65
2022-12-06T10:02:12.811Z,7.30
2022-12-06T10:06:16.841Z,7.15
2022-12-06T10:10:49.236Z,7.35
2022-12-06T10:15:18.445Z,7.47
2022-12-06T10:20:01.385Z,6.90
2022-12-06T10:24:03.399Z,9.50
2022-12-06T10:28:15.378Z,16.13
2022-12-06T10:32:19.348Z,10.80
2022-12-06T10:36:46.840Z,14.02
2022-12-06T10:45:00.255Z,14.45
2022-12-06T10:49:01.758Z,14.25
2022-12-06T10:53:15.725Z,15.07
2022-12-06T10:57:21.783Z,15.80
2022-12-06T11:01:28.881Z,16.10
2022-12-06T11:05:41.102Z,14.45
2022-12-06T11:09:46.131Z,14.65
2022-12-06T11:13:49.837Z,17.88
2022-12-06T11:18:17.167Z,12.82
2022-12-06T11:22:39.605Z,14.07
2022-12-06T11:26:57.712Z,12.60
2022-12-06T11:30:59.964Z,10.82
2022-12-06T11:35:01.659Z,11.55
2022-12-06T11:39:04.409Z,11.63
2022-12-06T11:43:10.294Z,10.38
2022-12-06T11:47:16.047Z,11.90
2022-12-06T11:51:21.293Z,11.75
2022-12-06T11:55:26.678Z,13.40
2022-12-06T11:59:31.938Z,14.35
2022-12-06T12:03:36.260Z,13.90
2022-12-06T12:07:39.168Z,13.43
2022-12-06T12:11:42.792Z,12.52
2022-12-06T12:15:50.769Z,14.43
2022-12-06T12:20:05.706Z,14.68
2022-12-06T12:25:18.361Z,13.27
2022-12-06T12:29:22.130Z,15.00
2022-12-06T12:33:25.588Z,13.38
2022-12-06T12:37:27.205Z,14.32
2022-12-06T12:41:55.774Z,14.82
2022-12-06T12:46:12.357Z,13.25
2022-12-06T12:50:13.870Z,12.97
2022-12-06T12:54:35.878Z,12.82
2022-12-06T12:58:38.388Z,13.00
2022-12-06T13:02:40.878Z,12.75
2022-12-06T13:06:49.421Z,11.68
2022-12-06T13:10:58.789Z,10.77
2022-12-06T13:15:07.819Z,9.57
2022-12-06T13:19:15.658Z,8.80
2022-12-06T13:23:20.007Z,9.30
2022-12-06T13:27:23.213Z,7.25
2022-12-06T13:31:31.368Z,7.35
2022-12-06T13:35:45.341Z,8.10
2022-12-06T13:39:50.522Z,7.95
2022-12-06T13:43:52.924Z,6.00
2022-12-06T13:47:54.543Z,6.00
2022-12-06T13:51:56.028Z,9.45
2022-12-06T13:56:04.230Z,5.95
2022-12-06T14:00:28.820Z,6.55
2022-12-06T14:08:44.677Z,7.20
2022-12-06T14:12:59.605Z,6.78
2022-12-06T14:17:04.682Z,9.32
2022-12-06T14:21:06.580Z,7.38
2022-12-06T14:25:22.982Z,5.88
2022-12-06T14:29:26.019Z,7.28
2022-12-06T14:33:27.772Z,8.82
2022-12-06T14:37:30.294Z,11.73
2022-12-06T14:41:56.762Z,11.88
2022-12-06T14:46:00.231Z,11.70
2022-12-06T14:50:20.975Z,10.85
2022-12-06T14:54:36.480Z,11.07
2022-12-06T14:58:41.963Z,11.88
2022-12-06T15:03:08.844Z,13.43
2022-12-06T15:07:30.967Z,8.23
2022-12-06T15:11:54.317Z,9.00
2022-12-06T15:16:08.137Z,5.57
2022-12-06T15:20:15.728Z,6.68
2022-12-06T15:28:20.222Z,5.55
2022-12-06T15:32:23.588Z,4.95
2022-12-06T15:36:31.105Z,5.50
2022-12-06T15:40:32.594Z,5.60
2022-12-06T15:44:34.240Z,5.63
2022-12-06T15:48:37.801Z,6.38
2022-12-06T15:52:39.766Z,6.53
2022-12-06T15:56:41.379Z,7.57
2022-12-06T16:00:43.171Z,6.45
2022-12-06T16:04:45.444Z,7.10
2022-12-06T16:08:47.552Z,6.95
2022-12-06T16:13:07.712Z,6.90
2022-12-06T16:17:10.038Z,6.22
2022-12-06T16:21:25.656Z,6.28
2022-12-06T16:25:27.535Z,5.65
2022-12-06T16:29:29.237Z,6.60
2022-12-06T16:33:30.953Z,6.53
2022-12-06T16:37:33.078Z,7.10
2022-12-06T16:41:36.196Z,6.53
2022-12-06T16:45:40.281Z,6.43
2022-12-06T16:49:46.794Z,6.93
2022-12-06T16:53:49.881Z,8.35
2022-12-06T16:57:51.405Z,11.23
2022-12-06T17:01:54.630Z,12.43
2022-12-06T17:05:56.263Z,18.05
2022-12-06T17:09:58.242Z,18.92
2022-12-06T17:13:59.759Z,11.48
2022-12-06T17:18:01.325Z,19.73
2022-12-06T17:22:03.485Z,14.27
2022-12-06T17:26:05.766Z,11.88
2022-12-06T17:30:13.395Z,10.07
2022-12-06T17:34:16.499Z,11.82
2022-12-06T17:38:18.338Z,8.75
2022-12-06T17:42:38.590Z,7.95
2022-12-06T17:46:42.012Z,10.30
2022-12-06T17:50:43.651Z,12.00
2022-12-06T17:54:45.145Z,21.52
2022-12-06T17:58:46.754Z,12.93
2022-12-06T18:02:49.279Z,9.80
2022-12-06T18:06:50.871Z,13.25
2022-12-06T18:10:59.249Z,8.05
2022-12-06T18:15:01.226Z,14.95
2022-12-06T18:19:08.879Z,16.98
2022-12-06T18:27:12.123Z,8.38
2022-12-06T18:31:13.688Z,7.10
2022-12-06T18:35:15.490Z,7.93
2022-12-06T18:39:25.285Z,9.55
2022-12-06T18:43:27.006Z,8.15
2022-12-06T18:47:28.463Z,7.82
2022-12-06T18:51:33.533Z,7.25
2022-12-06T18:55:35.016Z,6.50
2022-12-06T18:59:38.202Z,8.10
2022-12-06T19:03:40.417Z,9.70
2022-12-06T19:07:42.286Z,11.20
2022-12-06T19:11:46.710Z,9.13
2022-12-06T19:15:48.557Z,11.18
2022-12-06T19:19:50.176Z,11.40
2022-12-06T19:23:56.095Z,10.93
2022-12-06T19:27:57.749Z,10.98
2022-12-06T19:31:59.637Z,9.38
2022-12-06T19:36:04.458Z,12.52
2022-12-06T19:40:06.856Z,11.95
2022-12-06T19:44:17.382Z,12.38
2022-12-06T19:48:19.081Z,11.55
2022-12-06T19:52:24.269Z,9.35
2022-12-06T19:56:28.656Z,9.25
2022-12-06T20:00:30.339Z,10.07
2022-12-06T20:04:34.843Z,9.45
2022-12-06T20:08:37.908Z,11.98
2022-12-06T20:12:39.512Z,10.63
2022-12-06T20:16:43.011Z,12.80
2022-12-06T20:20:48.605Z,10.57
2022-12-06T20:24:50.161Z,11.82
2022-12-06T20:28:51.760Z,14.25
2022-12-06T20:32:53.351Z,12.20
2022-12-06T20:36:55.843Z,11.77
2022-12-06T20:40:57.546Z,12.57
2022-12-06T20:45:00.379Z,11.35
2022-12-06T20:49:05.768Z,12.15
2022-12-06T20:53:08.756Z,13.55
2022-12-06T20:57:10.356Z,12.35
2022-12-06T21:01:19.208Z,9.20
2022-12-06T21:05:20.824Z,10.07
2022-12-06T21:09:22.413Z,10.15
2022-12-06T21:13:24.748Z,10.20
2022-12-06T21:17:26.239Z,9.82
2022-12-06T21:21:34.793Z,8.38
2022-12-06T21:25:37.316Z,9.75
2022-12-06T21:29:43.284Z,7.82
2022-12-06T21:33:45.067Z,8.73
2022-12-06T21:37:46.721Z,7.68
2022-12-06T21:41:48.214Z,8.43
2022-12-06T21:45:50.173Z,8.60
2022-12-06T21:49:51.704Z,7.65
2022-12-06T21:53:53.619Z,8.50
2022-12-06T21:57:55.305Z,8.02
2022-12-06T22:01:56.998Z,8.77
2022-12-06T22:06:00.087Z,8.13
2022-12-06T22:10:02.088Z,8.48
2022-12-06T22:14:04.963Z,8.95
2022-12-06T22:18:06.557Z,7.97
2022-12-06T22:22:08.331Z,9.23
2022-12-06T22:26:12.012Z,9.13
2022-12-06T22:30:14.876Z,9.73
2022-12-06T22:34:17.151Z,8.55
2022-12-06T22:38:18.785Z,9.80
2022-12-06T22:42:20.333Z,10.63
2022-12-06T22:46:22.586Z,10.85
2022-12-06T22:50:24.337Z,9.77
2022-12-06T22:54:26.523Z,10.02
2022-12-06T22:58:28.182Z,11.23
2022-12-06T23:02:29.752Z,10.05
2022-12-06T23:06:32.006Z,9.98
2022-12-06T23:10:33.648Z,9.32
2022-12-06T23:14:35.350Z,9.95
2022-12-06T23:18:37.116Z,10.80
2022-12-06T23:22:39.541Z,11.00
2022-12-06T23:26:50.656Z,10.82
2022-12-06T23:30:55.492Z,10.23
2022-12-06T23:34:57.209Z,11.10
2022-12-06T23:38:58.909Z,11.95
2022-12-06T23:43:00.606Z,10.85
2022-12-06T23:47:02.110Z,11.57
2022-12-06T23:51:12.258Z,10.27
2022-12-06T23:55:13.983Z,10.55
2022-12-06T23:59:16.624Z,11.30
